createdAt,value
2022-12-29T00:13:44.117Z,3578
2022-12-29T00:28:44.203Z,3578
2022-12-29T00:43:44.106Z,3578
2022-12-29T00:58:44.139Z,3578
2022-12-29T01:13:44.080Z,3578
2022-12-29T01:28:44.103Z,3578
2022-12-29T01:43:44.068Z,3578
2022-12-29T01:58:44.105Z,3578
2022-12-29T02:28:44.079Z,3578
2022-12-29T02:43:44.025Z,3578
2022-12-29T02:58:44.057Z,3575
2022-12-29T03:13:44.029Z,3578
2022-12-29T03:28:44.041Z,3578
2022-12-29T03:43:44.003Z,3578
2022-12-29T03:58:44.027Z,3575
2022-12-29T04:13:43.979Z,3578
2022-12-29T04:28:43.991Z,3578
2022-12-29T04:43:43.961Z,3578
2022-12-29T04:58:43.987Z,3578
2022-12-29T05:13:43.925Z,3578
2022-12-29T05:28:43.972Z,3578
2022-12-29T05:43:43.931Z,3575
2022-12-29T05:58:43.959Z,3578
2022-12-29T06:13:43.901Z,3578
2022-12-29T06:28:43.925Z,3578
2022-12-29T06:43:43.882Z,3578
2022-12-29T06:58:43.877Z,3581
2022-12-29T07:13:43.847Z,3578
2022-12-29T07:28:43.859Z,3578
2022-12-29T07:43:43.813Z,3578
2022-12-29T07:58:43.850Z,3578
2022-12-29T08:13:43.804Z,3581
2022-12-29T08:28:43.815Z,3578
2022-12-29T08:43:43.757Z,3581
2022-12-29T08:58:43.797Z,3583
2022-12-29T09:13:43.751Z,3581
2022-12-29T09:28:43.769Z,3583
2022-12-29T09:43:43.702Z,3581
2022-12-29T09:58:43.750Z,3583
2022-12-29T10:13:43.700Z,3583
2022-12-29T10:28:43.739Z,3583
2022-12-29T10:43:43.660Z,3583
2022-12-29T10:58:48.054Z,3586
2022-12-29T11:13:43.629Z,3583
2022-12-29T11:28:43.634Z,3586
2022-12-29T11:43:43.578Z,3586
2022-12-29T11:58:43.598Z,3586
2022-12-29T12:13:43.545Z,3588
2022-12-29T12:28:43.568Z,3588
2022-12-29T12:43:43.535Z,3588
2022-12-29T12:58:43.520Z,3588
2022-12-29T13:13:43.541Z,3588
2022-12-29T13:28:43.493Z,3588
2022-12-29T13:43:43.430Z,3588
2022-12-29T13:58:43.450Z,3591
2022-12-29T14:13:43.374Z,3591
2022-12-29T14:28:43.399Z,3588
2022-12-29T14:43:43.330Z,3588
2022-12-29T14:58:43.348Z,3593
2022-12-29T15:13:43.291Z,3593
2022-12-29T15:28:43.348Z,3593
2022-12-29T15:43:46.947Z,3591
2022-12-29T15:58:43.277Z,3591
2022-12-29T16:13:43.221Z,3591
2022-12-29T16:28:43.246Z,3591
2022-12-29T16:43:43.171Z,3591
2022-12-29T16:58:47.620Z,3591
2022-12-29T17:13:43.165Z,3591
2022-12-29T17:28:43.159Z,3591
2022-12-29T17:43:43.092Z,3591
2022-12-29T17:58:43.143Z,3591
2022-12-29T18:13:46.588Z,3591
2022-12-29T18:28:43.084Z,3588
2022-12-29T18:43:43.036Z,3588
2022-12-29T18:58:43.058Z,3591
2022-12-29T19:13:42.983Z,3588
2022-12-29T19:28:43.002Z,3588
2022-12-29T19:43:42.973Z,3588
2022-12-29T19:58:47.256Z,3588
2022-12-29T20:13:42.942Z,3588
2022-12-29T20:28:42.945Z,3591
2022-12-29T20:43:42.876Z,3586
2022-12-29T20:59:08.478Z,3588
2022-12-29T21:13:42.860Z,3588
2022-12-29T21:28:42.877Z,3588
2022-12-29T21:43:42.827Z,3588
2022-12-29T21:58:42.833Z,3588
2022-12-29T22:13:42.781Z,3588
2022-12-29T22:28:42.825Z,3583
2022-12-29T22:43:42.773Z,3586
2022-12-29T22:58:42.774Z,3586
2022-12-29T23:13:42.720Z,3588
2022-12-29T23:28:42.787Z,3588
2022-12-29T23:43:42.723Z,3586
2022-12-29T23:58:42.725Z,3586
